Time;durP1;ratioP1;P1;durP2;ratioP2;P2;SDS_P1;SDS_P2;PMS_P1;PMS_P2;Temp;Humidity;BMP_temperature;BMP_pressure;BME280_temperature;BME280_humidity;BME280_pressure;Samples;Min_cycle;Max_cycle;Signal;HPM_P1;HPM_P2
2022/04/12 00:01:08;;;;;;;3.05;2.10;;;12.50;92.10;;;;;;5069323;28;20028;-57
2022/04/12 00:03:34;;;;;;;3.08;2.35;;;12.50;92.20;;;;;;5069623;28;20052;-57
2022/04/12 00:06:00;;;;;;;3.85;2.20;;;12.40;92.30;;;;;;5069766;28;20083;-57
2022/04/12 00:08:25;;;;;;;4.75;2.70;;;12.50;92.70;;;;;;5069521;28;20551;-57
2022/04/12 00:10:51;;;;;;;4.95;2.10;;;12.50;93.10;;;;;;5069530;28;20036;-57
2022/04/12 00:13:18;;;;;;;5.22;2.50;;;12.50;92.80;;;;;;5069833;28;20025;-57
2022/04/12 00:15:44;;;;;;;4.18;2.53;;;12.40;93.10;;;;;;5069573;28;20048;-57
2022/04/12 00:20:54;;;;;;;3.78;2.28;;;12.40;93.20;;;;;;5069507;28;20610;-56
2022/04/12 00:23:20;;;;;;;3.65;2.53;;;12.30;93.30;;;;;;5069511;28;20108;-56
2022/04/12 00:25:46;;;;;;;5.03;2.65;;;12.40;93.30;;;;;;5069294;28;20032;-56
2022/04/12 00:28:14;;;;;;;3.08;2.28;;;12.30;93.80;;;;;;5069183;28;20550;-56
2022/04/12 00:30:40;;;;;;;3.17;2.50;;;12.30;93.80;;;;;;5051158;28;20114;-56
2022/04/12 00:33:06;;;;;;;4.72;2.67;;;12.40;94.10;;;;;;5071922;28;20033;-56
2022/04/12 00:35:32;;;;;;;5.20;2.45;;;12.40;94.10;;;;;;5073071;28;20382;-56
2022/04/12 00:37:57;;;;;;;5.15;2.40;;;12.60;93.80;;;;;;5072949;28;20032;-56
2022/04/12 00:40:24;;;;;;;6.90;2.95;;;12.60;93.50;;;;;;5072871;28;20106;-56
2022/04/12 00:42:51;;;;;;;6.03;2.53;;;12.70;93.80;;;;;;5073141;28;20031;-57
2022/04/12 00:45:17;;;;;;;5.13;3.05;;;12.70;93.80;;;;;;5072709;28;20108;-57
2022/04/12 00:47:44;;;;;;;4.32;2.80;;;12.70;93.80;;;;;;5072783;28;20461;-57
2022/04/12 00:50:11;;;;;;;3.53;2.08;;;12.70;93.90;;;;;;5072696;28;20201;-57
2022/04/12 00:52:48;;;;;;;4.75;2.60;;;12.70;93.80;;;;;;5072954;28;20524;-57
2022/04/12 00:55:13;;;;;;;4.15;2.40;;;12.60;94.00;;;;;;5072767;28;20021;-57
2022/04/12 00:57:41;;;;;;;4.13;2.70;;;12.70;93.70;;;;;;5072942;28;20474;-57
2022/04/12 01:00:08;;;;;;;3.13;2.42;;;12.90;93.40;;;;;;5072617;28;20052;-57
2022/04/12 01:02:35;;;;;;;3.63;2.30;;;13.00;92.80;;;;;;5072845;28;20024;-57
2022/04/12 01:05:05;;;;;;;3.20;2.47;;;12.90;92.90;;;;;;5072977;28;20382;-57
2022/04/12 01:07:31;;;;;;;5.80;2.58;;;12.60;93.70;;;;;;5072757;28;20495;-56
2022/04/12 01:09:58;;;;;;;4.32;2.60;;;12.80;93.20;;;;;;5073280;28;20055;-56
2022/04/12 01:12:27;;;;;;;5.30;2.67;;;12.50;93.70;;;;;;5073072;28;20028;-56
2022/04/12 01:14:53;;;;;;;3.78;2.55;;;12.60;93.80;;;;;;5072613;28;20054;-56
2022/04/12 01:17:18;;;;;;;4.60;3.03;;;12.50;94.10;;;;;;5072263;28;20028;-56
2022/04/12 01:19:44;;;;;;;4.35;2.45;;;12.50;94.20;;;;;;5072553;28;20024;-56
2022/04/12 01:22:17;;;;;;;5.50;2.85;;;12.50;93.90;;;;;;5071282;28;20037;-57
2022/04/12 01:24:44;;;;;;;6.35;2.70;;;12.30;94.80;;;;;;5087883;28;20526;-56
2022/04/12 01:27:10;;;;;;;5.03;2.70;;;12.20;94.90;;;;;;5072217;28;20025;-57
2022/04/12 01:29:36;;;;;;;3.65;2.33;;;12.10;95.60;;;;;;5072100;28;20025;-57
2022/04/12 01:32:07;;;;;;;6.70;3.08;;;12.00;96.00;;;;;;5072483;28;20028;-57
2022/04/12 01:34:34;;;;;;;5.75;2.55;;;11.90;96.70;;;;;;5072427;28;20029;-56
2022/04/12 01:37:02;;;;;;;4.70;2.70;;;11.80;97.10;;;;;;5071974;28;20035;-56
2022/04/12 01:39:29;;;;;;;4.47;2.65;;;11.60;97.70;;;;;;5071953;28;20016;-57
2022/04/12 01:41:54;;;;;;;4.32;2.55;;;11.30;98.70;;;;;;5088509;28;20115;-56
2022/04/12 01:44:20;;;;;;;4.38;2.67;;;11.30;98.80;;;;;;5073381;28;20096;-56
2022/04/12 01:46:46;;;;;;;4.43;2.80;;;11.30;99.00;;;;;;5073451;28;20032;-56
2022/04/12 01:49:11;;;;;;;4.55;3.00;;;11.30;99.00;;;;;;5072012;28;20070;-57
2022/04/12 01:51:37;;;;;;;5.35;3.03;;;11.30;99.70;;;;;;5072084;28;20049;-57
2022/04/12 01:54:02;;;;;;;5.65;3.00;;;11.40;99.00;;;;;;5072309;28;20036;-57
2022/04/12 01:56:28;;;;;;;5.22;3.10;;;11.40;99.60;;;;;;5073220;28;20035;-57
2022/04/12 01:58:54;;;;;;;5.35;2.75;;;11.50;99.40;;;;;;5073074;28;20092;-57
2022/04/12 02:01:20;;;;;;;5.53;2.72;;;11.50;99.50;;;;;;5072113;28;20052;-58
2022/04/12 02:03:47;;;;;;;5.25;3.20;;;11.30;99.90;;;;;;5072020;28;20028;-57
2022/04/12 02:06:12;;;;;;;4.75;2.72;;;11.30;99.90;;;;;;5071707;28;20037;-57
2022/04/12 02:08:40;;;;;;;3.30;2.70;;;11.30;99.90;;;;;;5071902;28;20032;-57
2022/04/12 02:11:06;;;;;;;4.60;2.50;;;11.50;99.90;;;;;;5072008;28;20039;-57
2022/04/12 02:13:32;;;;;;;2.88;2.58;;;11.90;99.00;;;;;;5072213;28;20024;-57
2022/04/12 02:15:58;;;;;;;5.40;2.95;;;11.70;99.40;;;;;;5072310;28;20278;-57
2022/04/12 02:18:24;;;;;;;3.95;2.50;;;11.60;99.90;;;;;;5073361;28;20056;-57
2022/04/12 02:20:49;;;;;;;4.97;2.45;;;11.50;99.90;;;;;;5072305;28;20023;-57
2022/04/12 02:23:15;;;;;;;4.95;2.67;;;11.50;99.90;;;;;;5072308;28;20044;-57
2022/04/12 02:25:41;;;;;;;4.05;2.42;;;11.50;99.90;;;;;;5072551;28;20028;-57
2022/04/12 02:28:06;;;;;;;3.72;2.58;;;11.50;99.90;;;;;;5071686;28;20028;-57
2022/04/12 02:30:32;;;;;;;7.50;2.97;;;11.50;99.90;;;;;;5071981;28;20108;-57
2022/04/12 02:32:58;;;;;;;5.97;2.90;;;11.40;99.90;;;;;;5071166;28;20108;-57
2022/04/12 02:35:25;;;;;;;6.72;3.38;;;11.30;99.90;;;;;;5071312;28;20024;-57
2022/04/12 02:37:51;;;;;;;8.98;3.42;;;11.20;99.90;;;;;;5070841;28;20288;-57
2022/04/12 02:40:17;;;;;;;4.30;3.17;;;11.20;99.90;;;;;;5070773;28;20051;-57
2022/04/12 02:42:43;;;;;;;6.25;2.83;;;11.10;99.90;;;;;;5070910;28;20017;-57
2022/04/12 02:45:09;;;;;;;3.28;2.38;;;11.10;99.90;;;;;;5070513;28;20024;-57
2022/04/12 02:47:35;;;;;;;5.00;2.80;;;11.00;99.90;;;;;;5070444;28;20025;-57
2022/04/12 02:50:00;;;;;;;3.85;2.83;;;11.20;99.90;;;;;;5070849;28;20119;-57
2022/04/12 02:52:26;;;;;;;5.18;2.67;;;11.30;99.90;;;;;;5069370;28;20138;-57
2022/04/12 02:54:52;;;;;;;5.05;2.83;;;11.40;99.90;;;;;;5069993;28;20402;-57
2022/04/12 02:57:17;;;;;;;4.72;2.60;;;11.40;99.90;;;;;;5070369;28;20029;-57
2022/04/12 02:59:43;;;;;;;3.72;2.58;;;11.40;99.90;;;;;;5070337;28;20035;-57
2022/04/12 03:02:09;;;;;;;4.25;2.72;;;11.40;99.90;;;;;;5070681;28;20048;-57
2022/04/12 03:04:34;;;;;;;3.80;2.67;;;11.40;99.90;;;;;;5070282;28;20021;-57
2022/04/12 03:07:00;;;;;;;4.80;2.83;;;11.30;99.90;;;;;;5070308;28;20067;-57
2022/04/12 03:09:25;;;;;;;6.28;3.03;;;11.30;99.90;;;;;;5070077;28;20028;-57
2022/04/12 03:11:51;;;;;;;4.65;3.00;;;11.30;99.90;;;;;;5070219;28;20381;-57
2022/04/12 03:14:17;;;;;;;5.13;2.75;;;11.30;99.90;;;;;;5070589;28;20431;-57
2022/04/12 03:16:42;;;;;;;6.10;2.80;;;11.50;99.90;;;;;;5070260;28;20024;-57
2022/04/12 03:19:08;;;;;;;4.53;2.88;;;11.40;99.90;;;;;;5071238;28;20055;-57
2022/04/12 03:21:34;;;;;;;4.13;2.80;;;11.30;99.90;;;;;;5086045;28;20107;-57
2022/04/12 03:24:00;;;;;;;7.90;2.78;;;11.10;99.90;;;;;;5071341;28;20036;-57
2022/04/12 03:26:26;;;;;;;5.30;2.70;;;10.90;99.90;;;;;;5070295;28;20137;-57
2022/04/12 03:28:51;;;;;;;5.07;2.72;;;10.80;99.90;;;;;;5070242;28;20032;-57
2022/04/12 03:31:17;;;;;;;5.28;3.00;;;10.80;99.90;;;;;;5070438;28;20105;-57
2022/04/12 03:33:42;;;;;;;9.30;3.38;;;10.80;99.90;;;;;;5071386;28;20032;-57
2022/04/12 03:36:08;;;;;;;15.55;4.93;;;10.90;99.90;;;;;;5071666;28;20036;-57
2022/04/12 03:38:39;;;;;;;11.35;3.40;;;10.80;99.90;;;;;;5071317;28;20420;-57
2022/04/12 03:41:06;;;;;;;6.57;3.00;;;10.80;99.90;;;;;;5070629;28;20023;-57
2022/04/12 03:43:33;;;;;;;7.22;3.28;;;10.70;99.90;;;;;;5071287;28;20117;-57
2022/04/12 03:45:59;;;;;;;6.32;3.60;;;10.30;99.90;;;;;;5071027;28;20081;-57
2022/04/12 03:48:24;;;;;;;5.90;3.28;;;10.10;99.90;;;;;;5071300;28;20032;-57
2022/04/12 03:50:50;;;;;;;7.00;3.08;;;10.10;99.90;;;;;;5071048;28;20107;-57
2022/04/12 03:53:16;;;;;;;8.30;3.95;;;10.00;99.90;;;;;;5070919;28;20059;-57
2022/04/12 03:55:46;;;;;;;9.27;4.05;;;10.00;99.90;;;;;;5071568;28;20024;-57
2022/04/12 03:58:12;;;;;;;10.30;3.80;;;10.00;99.90;;;;;;5071441;28;20107;-57
2022/04/12 04:00:37;;;;;;;6.78;3.92;;;10.00;99.90;;;;;;5071293;28;20513;-57
2022/04/12 04:03:03;;;;;;;8.90;4.03;;;10.10;99.90;;;;;;5071334;28;20533;-57
2022/04/12 04:05:29;;;;;;;5.10;3.38;;;10.00;99.90;;;;;;5070847;28;20025;-57
2022/04/12 04:07:54;;;;;;;7.10;3.72;;;10.00;99.90;;;;;;5072510;28;20470;-57
2022/04/12 04:10:20;;;;;;;8.02;3.80;;;9.80;99.90;;;;;;5075258;28;20029;-57
2022/04/12 04:12:46;;;;;;;6.65;3.45;;;9.80;99.90;;;;;;5090393;28;20413;-57
2022/04/12 04:15:12;;;;;;;5.83;3.60;;;9.80;99.90;;;;;;5075188;28;20016;-57
2022/04/12 04:17:47;;;;;;;8.27;3.67;;;9.60;99.90;;;;;;5075442;28;20537;-57
2022/04/12 04:20:16;;;;;;;7.13;3.70;;;9.40;99.90;;;;;;5075163;28;20027;-57
2022/04/12 04:22:42;;;;;;;6.05;3.45;;;9.30;99.90;;;;;;5074181;28;20530;-57
2022/04/12 04:25:09;;;;;;;4.78;3.42;;;9.30;99.90;;;;;;5074650;28;20025;-57
2022/04/12 04:27:35;;;;;;;5.25;3.22;;;9.40;99.90;;;;;;5090343;28;20024;-57
2022/04/12 04:30:03;;;;;;;5.97;3.20;;;9.50;99.90;;;;;;5090256;28;20316;-57
2022/04/12 04:32:29;;;;;;;7.97;3.10;;;9.60;99.90;;;;;;5074870;28;20052;-57
2022/04/12 04:34:54;;;;;;;6.32;3.25;;;9.50;99.90;;;;;;5074480;28;20063;-57
2022/04/12 04:37:20;;;;;;;5.95;3.80;;;9.50;99.90;;;;;;5074659;28;20037;-57
2022/04/12 04:39:46;;;;;;;6.40;3.25;;;9.40;99.90;;;;;;5089956;28;20021;-57
2022/04/12 04:42:12;;;;;;;6.05;3.50;;;9.40;99.90;;;;;;5074739;28;20024;-57
2022/04/12 04:44:38;;;;;;;6.13;3.75;;;9.40;99.90;;;;;;5074591;28;20051;-57
2022/04/12 04:47:04;;;;;;;6.80;3.28;;;9.40;99.90;;;;;;5074262;28;20119;-57
2022/04/12 04:49:30;;;;;;;4.50;3.40;;;9.30;99.90;;;;;;5074165;28;20030;-57
2022/04/12 04:51:55;;;;;;;10.18;3.90;;;9.30;99.90;;;;;;5073902;28;20036;-57
2022/04/12 04:54:21;;;;;;;12.93;4.40;;;9.30;99.90;;;;;;5074405;28;20056;-57
2022/04/12 04:56:46;;;;;;;9.85;4.22;;;9.40;99.90;;;;;;5074383;28;20035;-57
2022/04/12 04:59:13;;;;;;;6.18;3.88;;;9.30;99.90;;;;;;5074261;28;20013;-57
2022/04/12 05:01:39;;;;;;;5.45;3.33;;;9.10;99.90;;;;;;5073847;28;20381;-57
2022/04/12 05:04:05;;;;;;;9.35;3.97;;;9.00;99.90;;;;;;5074215;28;20050;-57
2022/04/12 05:06:31;;;;;;;6.82;3.60;;;9.10;99.90;;;;;;5074117;28;20485;-57
2022/04/12 05:08:57;;;;;;;5.97;3.63;;;9.20;99.90;;;;;;5073765;28;20112;-57
2022/04/12 05:11:22;;;;;;;5.85;3.45;;;9.20;99.90;;;;;;5073675;28;20143;-57
2022/04/12 05:13:48;;;;;;;5.90;3.10;;;9.20;99.90;;;;;;5073833;28;20485;-56
2022/04/12 05:16:14;;;;;;;7.68;2.92;;;9.30;99.90;;;;;;5073020;28;20025;-56
2022/04/12 05:18:39;;;;;;;7.95;3.60;;;9.30;99.90;;;;;;5072756;28;20029;-57
2022/04/12 05:21:05;;;;;;;20.67;9.40;;;9.50;99.90;;;;;;5073379;28;20028;-57
2022/04/12 05:23:30;;;;;;;6.93;3.25;;;9.50;99.90;;;;;;5073869;28;20551;-57
2022/04/12 05:25:56;;;;;;;7.82;3.30;;;9.70;99.90;;;;;;5073397;28;20099;-57
2022/04/12 05:28:23;;;;;;;6.22;4.22;;;9.70;99.90;;;;;;5071943;28;20032;-57
2022/04/12 05:30:48;;;;;;;9.27;4.90;;;9.80;99.90;;;;;;5073068;28;20040;-57
2022/04/12 05:33:14;;;;;;;9.20;3.78;;;9.80;99.90;;;;;;5073778;28;20032;-57
2022/04/12 05:35:40;;;;;;;4.25;3.25;;;9.80;99.90;;;;;;5073247;28;20389;-57
2022/04/12 05:38:06;;;;;;;4.43;2.90;;;9.80;99.90;;;;;;5073171;28;20036;-57
2022/04/12 05:40:33;;;;;;;6.03;3.33;;;9.90;99.90;;;;;;5072677;28;20304;-57
2022/04/12 05:42:59;;;;;;;5.70;3.15;;;10.10;99.90;;;;;;5073178;28;20381;-57
2022/04/12 05:45:25;;;;;;;5.32;3.20;;;10.10;99.90;;;;;;5072901;28;20154;-57
2022/04/12 05:47:52;;;;;;;9.63;3.55;;;10.20;99.90;;;;;;5073049;28;20059;-56
2022/04/12 05:50:20;;;;;;;8.55;3.15;;;10.20;99.90;;;;;;5073208;28;20471;-56
2022/04/12 05:52:46;;;;;;;10.02;3.67;;;10.30;99.90;;;;;;5073453;28;20032;-57
2022/04/12 05:55:17;;;;;;;7.57;3.00;;;10.30;99.90;;;;;;5073257;28;20024;-56
2022/04/12 05:57:59;;;;;;;8.20;3.55;;;10.40;99.90;;;;;;5073708;28;20027;-56
2022/04/12 06:00:27;;;;;;;6.50;3.90;;;10.50;99.90;;;;;;5084110;28;20025;-56
2022/04/12 06:02:54;;;;;;;10.68;3.92;;;10.50;99.90;;;;;;5081594;28;20259;-57
2022/04/12 06:05:22;;;;;;;11.32;4.18;;;10.50;99.90;;;;;;5072775;28;20035;-56
2022/04/12 06:07:48;;;;;;;8.50;4.35;;;10.50;99.90;;;;;;5072294;28;20481;-56
2022/04/12 06:10:15;;;;;;;4.95;3.80;;;10.50;99.90;;;;;;5088619;28;20016;-56
2022/04/12 06:12:41;;;;;;;12.73;4.22;;;10.50;99.90;;;;;;5073145;28;20432;-56
2022/04/12 06:15:08;;;;;;;8.70;5.28;;;10.60;99.90;;;;;;5073016;28;20021;-56
2022/04/12 06:17:35;;;;;;;9.65;5.63;;;10.70;99.90;;;;;;5071952;28;20017;-56
2022/04/12 06:20:03;;;;;;;10.73;4.90;;;10.80;99.90;;;;;;5071926;28;20025;-56
2022/04/12 06:22:28;;;;;;;7.13;4.57;;;11.00;99.90;;;;;;5072036;28;20036;-56
2022/04/12 06:24:54;;;;;;;11.13;4.70;;;11.10;99.90;;;;;;5071864;28;20051;-56
2022/04/12 06:27:29;;;;;;;9.68;4.40;;;11.10;99.90;;;;;;5072197;28;20111;-56
2022/04/12 06:29:55;;;;;;;6.15;3.55;;;11.20;99.90;;;;;;5071297;28;20036;-56
2022/04/12 06:32:20;;;;;;;8.90;3.83;;;11.30;99.90;;;;;;5072601;28;20025;-56
2022/04/12 06:34:46;;;;;;;7.93;4.07;;;11.40;99.90;;;;;;5071881;28;20024;-56
2022/04/12 06:37:11;;;;;;;5.70;3.75;;;11.50;99.90;;;;;;5072368;28;20381;-56
2022/04/12 06:39:38;;;;;;;7.78;3.75;;;11.50;99.90;;;;;;5072132;28;20016;-56
2022/04/12 06:42:04;;;;;;;6.60;3.80;;;11.50;99.90;;;;;;5072243;28;20032;-56
2022/04/12 06:44:32;;;;;;;7.75;3.90;;;11.60;99.90;;;;;;5072016;28;20021;-56
2022/04/12 06:46:58;;;;;;;8.77;3.85;;;11.60;99.90;;;;;;5071998;28;20523;-56
2022/04/12 06:49:23;;;;;;;9.07;4.30;;;11.70;99.90;;;;;;5071746;28;20067;-56
2022/04/12 06:51:49;;;;;;;12.98;4.20;;;11.80;99.90;;;;;;5071805;28;20086;-56
2022/04/12 06:54:15;;;;;;;7.63;3.80;;;11.90;99.90;;;;;;5072460;28;20115;-56
2022/04/12 06:56:40;;;;;;;8.35;3.65;;;12.00;99.90;;;;;;5071912;28;20028;-56
2022/04/12 06:59:06;;;;;;;11.07;3.67;;;12.00;99.90;;;;;;5071875;28;20108;-56
2022/04/12 07:01:31;;;;;;;6.28;3.88;;;12.20;99.90;;;;;;5071268;28;20082;-56
2022/04/12 07:03:57;;;;;;;5.97;3.42;;;12.20;99.90;;;;;;5071886;28;20393;-56
2022/04/12 07:06:23;;;;;;;5.38;3.20;;;12.30;99.90;;;;;;5087049;28;20029;-56
2022/04/12 07:08:48;;;;;;;8.88;3.75;;;12.40;99.90;;;;;;5071394;28;20432;-56
2022/04/12 07:11:14;;;;;;;8.27;3.72;;;12.40;99.90;;;;;;5071803;28;20374;-56
2022/04/12 07:13:39;;;;;;;11.80;4.18;;;12.60;99.90;;;;;;5072176;28;20020;-56
2022/04/12 07:16:05;;;;;;;9.63;3.53;;;12.90;99.90;;;;;;5071764;28;20090;-56
2022/04/12 07:18:31;;;;;;;11.52;3.70;;;13.00;99.90;;;;;;5071558;28;20024;-56
2022/04/12 07:20:56;;;;;;;11.35;3.30;;;13.20;99.90;;;;;;5071586;28;20073;-56
2022/04/12 07:23:22;;;;;;;7.32;3.55;;;13.40;99.90;;;;;;5071298;28;20052;-56
2022/04/12 07:25:47;;;;;;;7.82;3.78;;;13.70;99.90;;;;;;5069965;28;20036;-56
2022/04/12 07:28:13;;;;;;;5.18;3.20;;;14.20;99.90;;;;;;5070081;28;20024;-57
2022/04/12 07:30:40;;;;;;;7.18;3.30;;;15.00;99.90;;;;;;5070021;28;20079;-57
2022/04/12 07:33:05;;;;;;;6.55;3.08;;;15.90;99.90;;;;;;5070015;28;20032;-57
2022/04/12 07:35:31;;;;;;;10.02;3.75;;;16.40;99.90;;;;;;5068615;28;20094;-57
2022/04/12 07:37:56;;;;;;;6.75;3.15;;;16.20;99.90;;;;;;5069815;28;20022;-57
2022/04/12 07:40:22;;;;;;;7.22;3.30;;;16.10;99.90;;;;;;5069741;28;20111;-57
2022/04/12 07:42:48;;;;;;;6.50;3.33;;;16.20;99.90;;;;;;5069758;28;20017;-57
2022/04/12 07:45:14;;;;;;;6.40;3.17;;;16.20;99.90;;;;;;5070115;28;20025;-57
2022/04/12 07:47:39;;;;;;;7.18;3.67;;;16.40;99.90;;;;;;5070138;28;20039;-57
2022/04/12 07:50:06;;;;;;;10.30;3.50;;;16.50;99.90;;;;;;5069718;28;20429;-56
2022/04/12 07:52:31;;;;;;;7.00;3.67;;;16.20;99.90;;;;;;5070081;28;20021;-57
2022/04/12 07:54:57;;;;;;;6.07;3.40;;;16.20;99.90;;;;;;5069515;28;20036;-57
2022/04/12 07:57:23;;;;;;;7.50;3.30;;;16.40;99.90;;;;;;5069457;28;20060;-57
2022/04/12 07:59:48;;;;;;;6.05;3.47;;;17.10;99.70;;;;;;5069650;28;20119;-57
2022/04/12 08:02:14;;;;;;;6.50;3.30;;;17.60;97.70;;;;;;5069821;28;20059;-57
2022/04/12 08:04:42;;;;;;;7.78;3.50;;;17.90;97.40;;;;;;5069765;28;20036;-58
2022/04/12 08:07:07;;;;;;;4.82;3.38;;;18.00;96.60;;;;;;5069958;28;20477;-58
2022/04/12 08:09:33;;;;;;;6.85;3.47;;;18.20;95.70;;;;;;5069442;28;20036;-57
2022/04/12 08:11:58;;;;;;;8.10;3.10;;;18.40;95.70;;;;;;5069419;28;20028;-57
2022/04/12 08:14:24;;;;;;;7.55;2.90;;;18.60;95.50;;;;;;5069685;28;20028;-57
2022/04/12 08:16:52;;;;;;;7.72;3.28;;;19.20;94.70;;;;;;5069915;28;20394;-58
2022/04/12 08:19:17;;;;;;;7.68;3.25;;;19.50;93.10;;;;;;5085326;28;20534;-58
2022/04/12 08:21:43;;;;;;;5.43;2.65;;;19.10;93.20;;;;;;5084688;28;20103;-58
2022/04/12 08:24:09;;;;;;;7.57;3.15;;;18.90;94.10;;;;;;5070216;28;20485;-58
2022/04/12 08:26:36;;;;;;;7.63;3.33;;;18.60;93.80;;;;;;5069480;28;20417;-58
2022/04/12 08:29:01;;;;;;;7.78;3.38;;;18.60;94.30;;;;;;5069701;28;20025;-58
2022/04/12 08:31:27;;;;;;;7.50;2.97;;;18.90;94.00;;;;;;5069456;28;20508;-59
2022/04/12 08:33:53;;;;;;;7.35;3.17;;;19.20;93.30;;;;;;5070004;28;20033;-57
2022/04/12 08:36:21;;;;;;;9.45;3.22;;;19.10;92.90;;;;;;5068517;28;20036;-58
2022/04/12 08:38:49;;;;;;;6.55;2.88;;;19.10;93.30;;;;;;5069504;28;20012;-58
2022/04/12 08:41:15;;;;;;;7.38;3.33;;;19.50;92.90;;;;;;5069951;28;20024;-58
2022/04/12 08:43:41;;;;;;;6.60;3.10;;;19.30;93.10;;;;;;5069560;28;20048;-58
2022/04/12 08:46:08;;;;;;;10.23;3.33;;;19.80;92.50;;;;;;5069291;28;20024;-58
2022/04/12 08:48:35;;;;;;;6.85;3.15;;;19.60;92.50;;;;;;5069137;28;20100;-58
2022/04/12 08:51:01;;;;;;;5.95;3.15;;;19.40;92.50;;;;;;5068833;28;20100;-58
2022/04/12 08:53:28;;;;;;;7.18;3.35;;;19.40;92.20;;;;;;5070854;28;20132;-58
2022/04/12 08:55:55;;;;;;;5.68;2.60;;;19.40;92.30;;;;;;5073187;28;20033;-58
2022/04/12 08:58:21;;;;;;;7.82;3.65;;;19.30;92.50;;;;;;5072624;28;20715;-58
2022/04/12 09:00:47;;;;;;;7.70;3.50;;;18.80;93.30;;;;;;5072690;28;20688;-58
2022/04/12 09:03:14;;;;;;;10.43;3.40;;;18.80;93.90;;;;;;5072840;28;20028;-58
2022/04/12 09:05:40;;;;;;;7.85;2.90;;;18.90;94.10;;;;;;5072934;28;20108;-57
2022/04/12 09:08:26;;;;;;;5.65;2.90;;;18.90;94.30;;;;;;5072610;28;20027;-57
2022/04/12 09:10:57;;;;;;;6.63;2.90;;;18.50;94.30;;;;;;5072625;28;20031;-57
2022/04/12 09:13:23;;;;;;;6.78;3.13;;;18.00;95.00;;;;;;5072357;28;20020;-57
2022/04/12 09:15:49;;;;;;;4.30;2.80;;;18.00;95.80;;;;;;5073015;28;20032;-57
2022/04/12 09:18:40;;;;;;;8.48;3.13;;;18.00;95.70;;;;;;5072523;28;20017;-57
2022/04/12 09:21:21;;;;;;;5.40;3.20;;;18.00;95.70;;;;;;5072192;28;20025;-57
2022/04/12 09:23:50;;;;;;;13.80;3.15;;;18.10;95.70;;;;;;5072347;28;20457;-57
2022/04/12 09:26:28;;;;;;;8.57;3.60;;;18.40;95.70;;;;;;5072036;28;20508;-57
2022/04/12 09:28:56;;;;;;;8.98;2.90;;;18.90;95.20;;;;;;5072136;28;20097;-57
2022/04/12 09:31:23;;;;;;;6.68;2.53;;;19.60;93.60;;;;;;5072243;28;20032;-57
2022/04/12 09:33:51;;;;;;;6.65;2.50;;;20.00;93.10;;;;;;5072231;28;20609;-57
2022/04/12 09:36:16;;;;;;;4.68;1.98;;;19.90;92.90;;;;;;5071988;28;20085;-57
2022/04/12 09:38:44;;;;;;;4.65;2.33;;;20.00;92.50;;;;;;5072237;28;20526;-57
2022/04/12 09:41:17;;;;;;;3.33;2.35;;;19.90;92.50;;;;;;5071876;28;20367;-56
2022/04/12 09:44:08;;;;;;;8.07;2.45;;;20.30;92.60;;;;;;5072753;28;20418;-56
2022/04/12 09:46:35;;;;;;;5.95;2.00;;;20.80;92.80;;;;;;5071436;28;20570;-57
2022/04/12 09:49:02;;;;;;;3.88;2.30;;;20.60;91.00;;;;;;5071926;28;20031;-57
2022/04/12 09:51:27;;;;;;;3.95;2.30;;;20.40;91.40;;;;;;5071614;28;20031;-57
2022/04/12 09:53:53;;;;;;;4.53;2.10;;;20.60;91.10;;;;;;5072179;28;20414;-57
2022/04/12 09:56:20;;;;;;;3.97;1.83;;;20.50;90.60;;;;;;5071760;28;20033;-57
2022/04/12 09:58:49;;;;;;;5.82;2.22;;;20.50;91.00;;;;;;5071725;28;20025;-57
2022/04/12 10:01:16;;;;;;;6.03;2.30;;;20.60;90.50;;;;;;5071696;28;20029;-57
2022/04/12 10:03:44;;;;;;;8.43;1.83;;;20.80;90.30;;;;;;5072261;28;20470;-57
2022/04/12 10:06:13;;;;;;;4.65;2.05;;;20.90;89.40;;;;;;5070644;28;20052;-57
2022/04/12 10:08:40;;;;;;;5.95;1.77;;;20.60;89.90;;;;;;5071631;28;20051;-57
2022/04/12 10:11:08;;;;;;;4.97;2.25;;;20.70;89.00;;;;;;5071598;28;20028;-57
2022/04/12 10:13:34;;;;;;;3.88;2.00;;;20.30;90.20;;;;;;5071515;28;20031;-57
2022/04/12 10:15:59;;;;;;;4.00;2.20;;;20.60;90.50;;;;;;5071549;28;20028;-57
2022/04/12 10:18:26;;;;;;;5.95;2.22;;;20.70;89.10;;;;;;5071244;28;20035;-57
2022/04/12 10:20:52;;;;;;;7.95;2.13;;;20.70;89.90;;;;;;5070021;28;20502;-57
2022/04/12 10:23:21;;;;;;;4.30;2.20;;;20.90;88.70;;;;;;5071427;28;20131;-57
2022/04/12 10:25:51;;;;;;;4.97;1.98;;;20.70;89.80;;;;;;5071374;28;20382;-57
2022/04/12 10:28:18;;;;;;;7.45;2.10;;;20.90;90.00;;;;;;5071520;28;20024;-57
2022/04/12 10:30:44;;;;;;;10.40;2.58;;;21.10;87.10;;;;;;5071352;28;20052;-57
2022/04/12 10:33:17;;;;;;;8.90;2.10;;;20.90;89.00;;;;;;5071095;28;20044;-57
2022/04/12 10:35:43;;;;;;;4.45;1.90;;;20.90;88.20;;;;;;5070830;28;20109;-57
2022/04/12 10:38:13;;;;;;;4.90;2.15;;;20.80;88.40;;;;;;5070945;28;20052;-57
2022/04/12 10:40:47;;;;;;;6.88;2.20;;;21.30;87.40;;;;;;5070845;28;20024;-57
2022/04/12 10:43:14;;;;;;;5.82;2.10;;;21.60;87.80;;;;;;5070978;28;20036;-57
2022/04/12 10:45:48;;;;;;;6.25;2.00;;;21.80;84.90;;;;;;5071344;28;20401;-57
2022/04/12 10:48:22;;;;;;;8.13;2.03;;;21.50;86.00;;;;;;5070902;28;20055;-57
2022/04/12 10:50:53;;;;;;;9.30;2.50;;;21.70;86.60;;;;;;5086540;28;20111;-57
2022/04/12 10:53:52;;;;;;;4.13;1.83;;;22.20;87.60;;;;;;5071225;28;20047;-57
2022/04/12 10:56:24;;;;;;;7.60;2.50;;;22.00;83.80;;;;;;5080098;28;20040;-58
2022/04/12 10:58:49;;;;;;;5.70;2.03;;;22.50;85.00;;;;;;5070537;28;20044;-59
2022/04/12 11:01:33;;;;;;;6.32;2.10;;;22.60;83.10;;;;;;5086326;28;20341;-58
2022/04/12 11:04:04;;;;;;;6.70;2.00;;;23.00;83.20;;;;;;5070736;28;20576;-58
2022/04/12 11:06:34;;;;;;;6.32;1.83;;;22.60;82.30;;;;;;5085932;28;20036;-58
2022/04/12 11:09:11;;;;;;;4.55;1.70;;;22.40;82.20;;;;;;5070150;28;20028;-57
2022/04/12 11:11:45;;;;;;;4.93;1.92;;;22.10;83.40;;;;;;5070644;28;20077;-58
2022/04/12 11:14:26;;;;;;;4.22;1.98;;;22.20;82.50;;;;;;5070767;28;20029;-58
2022/04/12 11:17:15;;;;;;;6.72;2.10;;;22.60;82.90;;;;;;5085340;28;20520;-58
2022/04/12 11:19:45;;;;;;;4.55;1.65;;;23.30;81.20;;;;;;5070126;28;20243;-57
2022/04/12 11:22:13;;;;;;;5.90;1.63;;;23.30;79.70;;;;;;5070310;28;20473;-57
2022/04/12 11:24:39;;;;;;;4.55;1.63;;;22.80;78.20;;;;;;5068819;28;20051;-57
2022/04/12 11:27:09;;;;;;;6.10;1.80;;;22.80;79.30;;;;;;5070001;28;20536;-57
2022/04/12 11:29:36;;;;;;;5.25;2.08;;;22.90;79.20;;;;;;5069747;28;20056;-57
2022/04/12 11:32:02;;;;;;;5.57;1.80;;;22.90;79.60;;;;;;5086184;28;20324;-57
2022/04/12 11:34:29;;;;;;;3.35;1.60;;;23.00;79.70;;;;;;5070061;28;20107;-57
2022/04/12 11:37:00;;;;;;;3.85;1.50;;;23.40;78.80;;;;;;5070023;28;20547;-58
2022/04/12 11:39:28;;;;;;;4.43;1.60;;;23.40;76.60;;;;;;5070350;28;20366;-58
2022/04/12 11:41:59;;;;;;;7.15;1.70;;;23.10;77.50;;;;;;5069909;28;20020;-58
2022/04/12 11:44:25;;;;;;;3.75;1.80;;;23.30;77.70;;;;;;5070269;28;20020;-58
2022/04/12 11:47:02;;;;;;;6.32;2.30;;;22.90;79.10;;;;;;5070833;28;20621;-58
2022/04/12 11:49:39;;;;;;;4.55;1.70;;;23.00;80.60;;;;;;5069075;28;20024;-58
2022/04/12 11:52:09;;;;;;;4.55;1.63;;;23.30;77.40;;;;;;5068892;28;20024;-58
2022/04/12 11:54:36;;;;;;;5.57;1.73;;;23.10;78.80;;;;;;5069781;28;20433;-58
2022/04/12 11:57:23;;;;;;;5.65;1.85;;;23.20;79.00;;;;;;5084932;28;20064;-58
2022/04/12 11:59:54;;;;;;;5.43;1.80;;;23.70;77.70;;;;;;5069631;28;20482;-58
2022/04/12 12:02:22;;;;;;;8.82;2.28;;;23.70;76.70;;;;;;5068774;28;20052;-58
2022/04/12 12:04:52;;;;;;;5.15;2.20;;;23.00;77.00;;;;;;5058496;28;20025;-58
2022/04/12 12:07:19;;;;;;;8.18;2.40;;;22.70;78.00;;;;;;5051793;28;20489;-58
2022/04/12 12:09:53;;;;;;;4.72;1.95;;;22.60;77.80;;;;;;5069403;28;20017;-58
2022/04/12 12:12:19;;;;;;;4.40;2.00;;;22.60;77.00;;;;;;5069804;28;20028;-58
2022/04/12 12:14:44;;;;;;;5.85;2.15;;;22.80;78.20;;;;;;5069724;28;20024;-58
2022/04/12 12:17:18;;;;;;;3.92;1.65;;;23.20;77.20;;;;;;5069468;28;20029;-58
2022/04/12 12:19:45;;;;;;;7.85;1.98;;;23.60;76.70;;;;;;5070222;28;20025;-58
2022/04/12 12:22:12;;;;;;;3.28;1.60;;;23.90;76.20;;;;;;5069937;28;20052;-58
2022/04/12 12:24:52;;;;;;;5.72;2.00;;;24.50;73.80;;;;;;5070309;28;20507;-58
2022/04/12 12:27:35;;;;;;;4.97;2.13;;;24.80;73.60;;;;;;5069750;28;20028;-58
2022/04/12 12:30:04;;;;;;;5.10;1.77;;;25.60;73.60;;;;;;5088890;28;20036;-58
2022/04/12 12:32:38;;;;;;;2.88;1.30;;;24.60;71.40;;;;;;5073467;28;20056;-58
2022/04/12 12:35:12;;;;;;;5.05;1.73;;;24.30;73.20;;;;;;5073374;28;20020;-58
2022/04/12 12:37:39;;;;;;;6.68;1.90;;;24.40;72.40;;;;;;5073328;28;20120;-58
2022/04/12 12:40:26;;;;;;;3.45;1.40;;;23.90;72.90;;;;;;5073233;28;20171;-58
2022/04/12 12:42:54;;;;;;;4.28;1.17;;;24.30;72.90;;;;;;5073892;28;20017;-58
2022/04/12 12:45:21;;;;;;;5.88;1.67;;;24.40;72.40;;;;;;5073191;28;20560;-58
2022/04/12 12:47:53;;;;;;;5.15;1.65;;;24.10;72.80;;;;;;5072893;28;20057;-58
2022/04/12 12:50:20;;;;;;;5.18;1.98;;;24.10;72.60;;;;;;5073607;28;20470;-58
2022/04/12 12:52:47;;;;;;;6.88;1.77;;;24.30;72.70;;;;;;5073246;28;20422;-58